Time,TemperatureF,DewpointF,PressureIn,WindDirection,WindDirectionDegrees,WindSpeedMPH,WindSpeedGustMPH,Humidity,HourlyPrecipIn,Conditions,Clouds,dailyrainin,SoftwareType,DateUTC
2013-05-06 00:13:00,58.8,50.5,29.59,East,90,1.7,-999.0,74,-99.99,,,0.00,Acu-Link.com,2013-05-06 07:13:00,
2013-05-06 00:29:00,59.5,49.7,29.59,WNW,292,1.7,-999.0,70,-99.99,,,0.00,Acu-Link.com,2013-05-06 07:29:00,
2013-05-06 00:44:00,59.5,50.1,29.59,NE,45,1.7,-999.0,71,-99.99,,,0.00,Acu-Link.com,2013-05-06 07:44:00,
2013-05-06 00:59:00,59.7,49.9,29.60,NNE,22,1.7,-999.0,70,-99.99,,,0.00,Acu-Link.com,2013-05-06 07:59:00,
2013-05-06 01:14:00,59.7,49.9,29.60,NNE,22,3.2,-999.0,70,-99.99,,,0.00,Acu-Link.com,2013-05-06 08:14:00,
2013-05-06 01:29:00,59.7,49.9,29.60,NNW,337,3.7,-999.0,70,-99.99,,,0.00,Acu-Link.com,2013-05-06 08:29:00,
2013-05-06 01:44:00,59.5,49.7,29.60,SE,135,2.7,-999.0,70,-99.99,,,0.00,Acu-Link.com,2013-05-06 08:44:00,
2013-05-06 02:00:00,59.2,49.8,29.60,SSW,202,0.0,-999.0,71,-99.99,,,0.00,Acu-Link.com,2013-05-06 09:00:00,
2013-05-06 02:15:00,58.3,49.7,29.60,WNW,292,1.1,-999.0,73,-99.99,,,0.00,Acu-Link.com,2013-05-06 09:15:00,
2013-05-06 02:30:00,57.7,49.1,29.60,North,0,0.0,-999.0,73,-99.99,,,0.00,Acu-Link.com,2013-05-06 09:30:00,
2013-05-06 02:45:00,57.4,49.2,29.61,SSW,202,0.0,-999.0,74,-99.99,,,0.00,Acu-Link.com,2013-05-06 09:45:00,
2013-05-06 03:01:00,57.0,49.5,29.60,West,270,0.0,-999.0,76,-99.99,,,0.00,Acu-Link.com,2013-05-06 10:01:00,
2013-05-06 03:16:00,57.2,49.3,29.60,North,0,0.0,-999.0,75,-99.99,,,0.00,Acu-Link.com,2013-05-06 10:16:00,
2013-05-06 03:31:00,57.0,49.5,29.60,SSE,157,2.7,-999.0,76,-99.99,,,0.00,Acu-Link.com,2013-05-06 10:31:00,
2013-05-06 03:47:00,57.2,49.7,29.60,West,270,1.1,-999.0,76,-99.99,,,0.00,Acu-Link.com,2013-05-06 10:47:00,
2013-05-06 04:02:00,57.2,49.3,29.60,West,270,1.7,-999.0,75,-99.99,,,0.00,Acu-Link.com,2013-05-06 11:02:00,
2013-05-06 04:17:00,57.2,49.7,29.60,WNW,292,1.7,-999.0,76,-99.99,,,0.00,Acu-Link.com,2013-05-06 11:17:00,
2013-05-06 04:33:00,57.0,49.5,29.60,SW,225,1.1,-999.0,76,-99.99,,,0.00,Acu-Link.com,2013-05-06 11:33:00,
2013-05-06 04:48:00,57.2,49.3,29.60,NE,45,1.7,-999.0,75,-99.99,,,0.00,Acu-Link.com,2013-05-06 11:48:00,
2013-05-06 05:03:00,56.5,48.7,29.59,West,270,1.1,-999.0,75,-99.99,,,0.00,Acu-Link.com,2013-05-06 12:03:00,
2013-05-06 05:19:00,55.9,48.8,29.60,North,0,0.0,-999.0,77,-99.99,,,0.00,Acu-Link.com,2013-05-06 12:19:00,
2013-05-06 05:34:00,55.4,48.3,29.61,WNW,292,0.0,-999.0,77,-99.99,,,0.00,Acu-Link.com,2013-05-06 12:34:00,
2013-05-06 05:49:00,55.8,49.0,29.61,West,270,0.0,-999.0,78,-99.99,,,0.00,Acu-Link.com,2013-05-06 12:49:00,
2013-05-06 06:05:00,54.9,48.5,29.61,West,270,0.0,-999.0,79,-99.99,,,0.00,Acu-Link.com,2013-05-06 13:05:00,
2013-05-06 06:20:00,54.7,49.0,29.62,South,180,0.0,-999.0,81,-99.99,,,0.00,Acu-Link.com,2013-05-06 13:20:00,
2013-05-06 06:35:00,54.7,49.3,29.62,West,270,0.0,-999.0,82,-99.99,,,0.00,Acu-Link.com,2013-05-06 13:35:00,
2013-05-06 06:51:00,55.9,49.1,29.63,ENE,67,0.0,-999.0,78,-99.99,,,0.00,Acu-Link.com,2013-05-06 13:51:00,
2013-05-06 07:06:00,56.3,49.9,29.64,WNW,292,0.0,-999.0,79,-99.99,,,0.00,Acu-Link.com,2013-05-06 14:06:00,
2013-05-06 07:21:00,56.8,49.7,29.63,SE,135,0.0,-999.0,77,-99.99,,,0.00,Acu-Link.com,2013-05-06 14:21:00,
2013-05-06 07:37:00,57.4,50.2,29.64,WNW,292,0.0,-999.0,77,-99.99,,,0.00,Acu-Link.com,2013-05-06 14:37:00,
2013-05-06 07:52:00,58.5,51.0,29.64,WSW,247,0.0,-999.0,76,-99.99,,,0.00,Acu-Link.com,2013-05-06 14:52:00,
2013-05-06 08:07:00,61.0,51.5,29.64,SW,225,0.0,-999.0,71,-99.99,,,0.00,Acu-Link.com,2013-05-06 15:07:00,
2013-05-06 08:22:00,62.4,51.7,29.65,North,0,0.0,-999.0,68,-99.99,,,0.00,Acu-Link.com,2013-05-06 15:22:00,
2013-05-06 08:38:00,62.4,52.5,29.65,SSE,157,0.0,-999.0,70,-99.99,,,0.00,Acu-Link.com,2013-05-06 15:38:00,
2013-05-06 08:53:00,63.1,52.4,29.65,SSW,202,2.7,-999.0,68,-99.99,,,0.00,Acu-Link.com,2013-05-06 15:53:00,
2013-05-06 09:08:00,63.7,52.9,29.66,SSE,157,2.2,-999.0,68,-99.99,,,0.00,Acu-Link.com,2013-05-06 16:08:00,
2013-05-06 09:23:00,63.1,52.0,29.66,West,270,3.7,-999.0,67,-99.99,,,0.00,Acu-Link.com,2013-05-06 16:23:00,
2013-05-06 09:39:00,64.0,52.0,29.66,NE,45,0.0,-999.0,65,-99.99,,,0.00,Acu-Link.com,2013-05-06 16:39:00,
2013-05-06 09:54:00,64.4,52.4,29.67,NNW,337,3.2,-999.0,65,-99.99,,,0.00,Acu-Link.com,2013-05-06 16:54:00,
2013-05-06 10:09:00,64.9,52.0,29.67,SW,225,2.7,-999.0,63,-99.99,,,0.00,Acu-Link.com,2013-05-06 17:09:00,
2013-05-06 10:25:00,66.6,53.6,29.67,SE,135,0.0,-999.0,63,-99.99,,,0.00,Acu-Link.com,2013-05-06 17:25:00,
2013-05-06 10:40:00,68.7,53.8,29.67,ESE,112,2.2,-999.0,59,-99.99,,,0.00,Acu-Link.com,2013-05-06 17:40:00,
2013-05-06 10:55:00,66.6,52.3,29.67,NE,45,0.0,-999.0,60,-99.99,,,0.00,Acu-Link.com,2013-05-06 17:55:00,
2013-05-06 11:10:00,66.7,51.4,29.67,WNW,292,1.7,-999.0,58,-99.99,,,0.00,Acu-Link.com,2013-05-06 18:10:00,
2013-05-06 11:26:00,66.6,52.3,29.67,East,90,2.2,-999.0,60,-99.99,,,0.00,Acu-Link.com,2013-05-06 18:26:00,
2013-05-06 11:41:00,68.4,52.1,29.66,ENE,67,2.7,-999.0,56,-99.99,,,0.00,Acu-Link.com,2013-05-06 18:41:00,
2013-05-06 11:56:00,70.2,51.7,29.66,ENE,67,6.8,-999.0,52,-99.99,,,0.00,Acu-Link.com,2013-05-06 18:56:00,
2013-05-06 12:12:00,71.1,52.6,29.66,East,90,4.2,-999.0,52,-99.99,,,0.00,Acu-Link.com,2013-05-06 19:12:00,
2013-05-06 12:27:00,72.1,53.0,29.65,ESE,112,4.2,-999.0,51,-99.99,,,0.00,Acu-Link.com,2013-05-06 19:27:00,
2013-05-06 12:42:00,69.8,51.4,29.65,NE,45,3.7,-999.0,52,-99.99,,,0.00,Acu-Link.com,2013-05-06 19:42:00,
2013-05-06 12:57:00,70.3,52.9,29.65,SSW,202,2.2,-999.0,54,-99.99,,,0.00,Acu-Link.com,2013-05-06 19:57:00,
2013-05-06 13:12:00,70.9,52.9,29.64,NE,45,2.7,-999.0,53,-99.99,,,0.00,Acu-Link.com,2013-05-06 20:12:00,
2013-05-06 13:28:00,72.9,55.3,29.64,East,90,1.7,-999.0,54,-99.99,,,0.00,Acu-Link.com,2013-05-06 20:28:00,
2013-05-06 13:43:00,71.8,52.7,29.64,ESE,112,3.2,-999.0,51,-99.99,,,0.00,Acu-Link.com,2013-05-06 20:43:00,
2013-05-06 13:58:00,70.9,53.4,29.64,East,90,3.7,-999.0,54,-99.99,,,0.00,Acu-Link.com,2013-05-06 20:58:00,
2013-05-06 14:13:00,71.6,52.5,29.64,NNW,337,2.7,-999.0,51,-99.99,,,0.00,Acu-Link.com,2013-05-06 21:13:00,
2013-05-06 14:28:00,71.1,53.1,29.65,SSW,202,1.1,-999.0,53,-99.99,,,0.00,Acu-Link.com,2013-05-06 21:28:00,
2013-05-06 14:44:00,66.6,52.7,29.64,NE,45,3.7,-999.0,61,-99.99,,,0.00,Acu-Link.com,2013-05-06 21:44:00,
2013-05-06 14:59:00,64.6,53.8,29.65,ESE,112,2.2,-999.0,68,-99.99,,,0.00,Acu-Link.com,2013-05-06 21:59:00,
2013-05-06 15:14:00,60.1,57.2,29.66,WSW,247,2.7,-999.0,90,-99.99,,,0.01,Acu-Link.com,2013-05-06 22:14:00,
2013-05-06 15:29:00,58.6,56.0,29.65,WSW,247,3.2,-999.0,91,-99.99,,,0.21,Acu-Link.com,2013-05-06 22:29:00,
2013-05-06 15:45:00,59.0,56.7,29.64,NNE,22,2.2,-999.0,92,-99.99,,,0.35,Acu-Link.com,2013-05-06 22:45:00,
2013-05-06 16:00:00,59.7,57.4,29.64,West,270,2.7,-999.0,92,-99.99,,,0.35,Acu-Link.com,2013-05-06 23:00:00,
2013-05-06 16:15:00,59.9,57.0,29.64,NE,45,4.2,-999.0,90,-99.99,,,0.35,Acu-Link.com,2013-05-06 23:15:00,
2013-05-06 16:30:00,60.3,56.7,29.63,West,270,4.7,-999.0,88,-99.99,,,0.35,Acu-Link.com,2013-05-06 23:30:00,
2013-05-06 16:46:00,60.4,57.1,29.64,ENE,67,4.7,-999.0,89,-99.99,,,0.35,Acu-Link.com,2013-05-06 23:46:00,
2013-05-06 17:01:00,61.0,56.8,29.64,East,90,3.7,-999.0,86,-99.99,,,0.35,Acu-Link.com,2013-05-07 00:01:00,
2013-05-06 17:16:00,61.3,57.4,29.65,East,90,2.7,-999.0,87,-99.99,,,0.35,Acu-Link.com,2013-05-07 00:16:00,
2013-05-06 17:31:00,62.1,56.5,29.65,WNW,292,4.2,-999.0,82,-99.99,,,0.35,Acu-Link.com,2013-05-07 00:31:00,
2013-05-06 17:47:00,62.6,57.0,29.66,ESE,112,2.2,-999.0,82,-99.99,,,0.35,Acu-Link.com,2013-05-07 00:47:00,
2013-05-06 18:02:00,64.6,57.6,29.65,NNE,22,0.0,-999.0,78,-99.99,,,0.35,Acu-Link.com,2013-05-07 01:02:00,
2013-05-06 18:17:00,65.5,56.6,29.65,SW,225,2.2,-999.0,73,-99.99,,,0.36,Acu-Link.com,2013-05-07 01:17:00,
2013-05-06 18:33:00,65.7,56.0,29.65,NNW,337,3.7,-999.0,71,-99.99,,,0.36,Acu-Link.com,2013-05-07 01:33:00,
2013-05-06 18:48:00,63.5,53.9,29.65,WSW,247,2.2,-999.0,71,-99.99,,,0.36,Acu-Link.com,2013-05-07 01:48:00,
2013-05-06 19:03:00,61.7,54.1,29.65,West,270,3.2,-999.0,76,-99.99,,,0.36,Acu-Link.com,2013-05-07 02:03:00,
2013-05-06 19:19:00,60.6,54.7,29.65,WNW,292,1.1,-999.0,81,-99.99,,,0.36,Acu-Link.com,2013-05-07 02:19:00,
2013-05-06 19:34:00,60.4,54.9,29.66,ENE,67,3.7,-999.0,82,-99.99,,,0.36,Acu-Link.com,2013-05-07 02:34:00,
2013-05-06 19:49:00,59.4,54.9,29.66,WSW,247,2.7,-999.0,85,-99.99,,,0.36,Acu-Link.com,2013-05-07 02:49:00,
2013-05-06 20:04:00,59.2,54.4,29.67,NE,45,3.2,-999.0,84,-99.99,,,0.36,Acu-Link.com,2013-05-07 03:04:00,
2013-05-06 20:19:00,58.8,54.0,29.68,North,0,2.2,-999.0,84,-99.99,,,0.36,Acu-Link.com,2013-05-07 03:19:00,
2013-05-06 20:34:00,59.4,53.6,29.68,NNW,337,3.7,-999.0,81,-99.99,,,0.36,Acu-Link.com,2013-05-07 03:34:00,
2013-05-06 20:49:00,59.2,54.0,29.69,North,0,1.7,-999.0,83,-99.99,,,0.36,Acu-Link.com,2013-05-07 03:49:00,
2013-05-06 21:05:00,58.8,53.6,29.70,NE,45,2.2,-999.0,83,-99.99,,,0.36,Acu-Link.com,2013-05-07 04:05:00,
2013-05-06 21:20:00,59.2,53.4,29.71,SE,135,4.2,-999.0,81,-99.99,,,0.36,Acu-Link.com,2013-05-07 04:20:00,
2013-05-06 21:35:00,59.4,52.9,29.72,NW,315,2.2,-999.0,79,-99.99,,,0.36,Acu-Link.com,2013-05-07 04:35:00,
2013-05-06 21:50:00,59.5,52.6,29.72,WNW,292,3.7,-999.0,78,-99.99,,,0.36,Acu-Link.com,2013-05-07 04:50:00,
2013-05-06 22:05:00,59.5,52.6,29.73,NE,45,3.2,-999.0,78,-99.99,,,0.36,Acu-Link.com,2013-05-07 05:05:00,
2013-05-06 22:21:00,59.7,53.2,29.73,NNW,337,2.2,-999.0,79,-99.99,,,0.36,Acu-Link.com,2013-05-07 05:21:00,
2013-05-06 22:36:00,59.5,52.6,29.74,ENE,67,2.2,-999.0,78,-99.99,,,0.36,Acu-Link.com,2013-05-07 05:36:00,
2013-05-06 22:51:00,59.4,52.5,29.74,WNW,292,3.2,-999.0,78,-99.99,,,0.36,Acu-Link.com,2013-05-07 05:51:00,
2013-05-06 23:06:00,59.4,52.2,29.74,WSW,247,2.7,-999.0,77,-99.99,,,0.36,Acu-Link.com,2013-05-07 06:06:00,
2013-05-06 23:22:00,59.4,51.8,29.74,WSW,247,2.7,-999.0,76,-99.99,,,0.36,Acu-Link.com,2013-05-07 06:22:00,
2013-05-06 23:37:00,59.2,51.3,29.74,WSW,247,2.7,-999.0,75,-99.99,,,0.36,Acu-Link.com,2013-05-07 06:37:00,
2013-05-06 23:52:00,59.0,51.4,29.74,ENE,67,2.7,-999.0,76,-99.99,,,0.36,Acu-Link.com,2013-05-07 06:52:00,